Time;durP1;ratioP1;P1;durP2;ratioP2;P2;SDS_P1;SDS_P2;PMS_P1;PMS_P2;Temp;Humidity;BMP_temperature;BMP_pressure;BME280_temperature;BME280_humidity;BME280_pressure;Samples;Min_cycle;Max_cycle;Signal;HPM_P1;HPM_P2
2022/12/08 00:00:09;;;;;;;5.47;2.80;;;4.20;99.90;;;;;;5123643;28;20042;-71
2022/12/08 00:02:46;;;;;;;2.53;1.73;;;4.40;99.90;;;;;;5149539;28;20061;-71
2022/12/08 00:11:05;;;;;;;3.78;2.53;;;4.40;99.90;;;;;;5160557;28;20293;-71
2022/12/08 00:13:36;;;;;;;3.00;2.63;;;4.50;99.90;;;;;;5118107;28;20065;-70
2022/12/08 00:16:08;;;;;;;5.10;2.28;;;4.60;99.90;;;;;;5138798;28;20048;-71
2022/12/08 00:18:47;;;;;;;2.78;1.83;;;4.70;99.90;;;;;;5172191;28;20042;-71
2022/12/08 00:21:21;;;;;;;3.20;2.08;;;4.80;99.90;;;;;;5150813;28;20050;-71
2022/12/08 00:24:03;;;;;;;3.40;2.20;;;4.70;99.90;;;;;;5135479;28;20527;-71
2022/12/08 00:26:36;;;;;;;2.75;1.92;;;4.70;99.90;;;;;;5134063;28;20053;-71
2022/12/08 00:29:09;;;;;;;3.65;2.63;;;4.70;99.90;;;;;;5104333;28;20050;-70
2022/12/08 00:31:43;;;;;;;4.25;2.50;;;4.60;99.90;;;;;;5151853;28;20045;-71
2022/12/08 00:34:17;;;;;;;3.17;2.30;;;4.40;99.90;;;;;;5131841;28;20037;-71
2022/12/08 00:36:57;;;;;;;3.08;2.03;;;4.40;99.90;;;;;;5139789;28;20052;-71
2022/12/08 00:39:31;;;;;;;3.72;2.03;;;4.30;99.90;;;;;;5140445;28;20038;-71
2022/12/08 00:42:13;;;;;;;4.43;2.30;;;4.30;99.90;;;;;;5151514;28;20516;-71
2022/12/08 00:44:45;;;;;;;3.60;2.08;;;4.20;99.90;;;;;;5150918;28;20043;-71
2022/12/08 00:47:17;;;;;;;3.05;1.95;;;4.10;99.90;;;;;;5119220;28;20047;-71
2022/12/08 00:49:50;;;;;;;2.72;2.13;;;4.00;99.90;;;;;;5128436;28;20046;-71
2022/12/08 00:52:22;;;;;;;4.05;2.47;;;4.00;99.90;;;;;;5151437;28;20089;-71
2022/12/08 00:54:53;;;;;;;5.40;3.30;;;4.00;99.90;;;;;;5137809;28;20045;-71
2022/12/08 00:57:27;;;;;;;4.63;3.30;;;4.00;99.90;;;;;;5166612;28;20058;-71
2022/12/08 01:00:03;;;;;;;6.93;3.90;;;4.10;99.90;;;;;;5150450;28;20049;-70
2022/12/08 01:02:36;;;;;;;8.90;4.13;;;4.30;99.90;;;;;;5238880;23;20065;-77
2022/12/08 01:05:22;;;;;;;6.43;3.92;;;4.40;99.90;;;;;;5152635;28;20046;-77
2022/12/08 01:07:58;;;;;;;5.93;3.70;;;4.40;99.90;;;;;;5168046;28;20030;-76
2022/12/08 01:10:52;;;;;;;6.60;4.10;;;4.20;99.90;;;;;;5143127;28;20164;-77
2022/12/08 01:13:23;;;;;;;8.00;3.80;;;4.10;99.90;;;;;;5144747;28;20046;-77
2022/12/08 01:15:59;;;;;;;6.50;3.47;;;4.10;99.90;;;;;;5179987;28;20064;-74
2022/12/08 01:18:33;;;;;;;6.10;4.00;;;4.20;99.90;;;;;;5156137;28;20057;-74
2022/12/08 01:21:22;;;;;;;7.07;4.20;;;4.20;99.90;;;;;;5140544;28;20038;-76
2022/12/08 01:23:55;;;;;;;7.25;4.05;;;4.20;99.90;;;;;;5175327;28;20042;-76
2022/12/08 01:26:27;;;;;;;6.80;3.92;;;4.20;99.90;;;;;;5157697;28;20222;-77
2022/12/08 01:28:58;;;;;;;5.90;3.72;;;4.20;99.90;;;;;;5138655;28;20038;-75
2022/12/08 01:31:37;;;;;;;5.15;3.72;;;4.20;99.90;;;;;;5160507;28;20056;-77
2022/12/08 01:34:17;;;;;;;4.47;3.05;;;4.20;99.90;;;;;;5161156;28;20070;-76
2022/12/08 01:36:53;;;;;;;3.65;2.75;;;4.30;99.90;;;;;;5160079;28;20042;-77
2022/12/08 01:39:28;;;;;;;3.75;2.90;;;4.40;99.90;;;;;;5181426;28;20219;-80
2022/12/08 01:42:04;;;;;;;3.72;2.50;;;4.40;99.90;;;;;;5176504;28;20333;-75
2022/12/08 01:44:35;;;;;;;5.28;2.80;;;4.30;99.90;;;;;;5174758;28;20046;-78
2022/12/08 01:47:12;;;;;;;3.60;2.88;;;4.10;99.90;;;;;;5179103;28;20250;-73
2022/12/08 01:49:45;;;;;;;3.38;2.67;;;3.90;99.90;;;;;;5189129;28;20038;-73
2022/12/08 01:52:32;;;;;;;4.60;2.90;;;3.90;99.90;;;;;;5162289;28;20048;-76
2022/12/08 01:55:38;;;;;;;6.40;3.42;;;3.70;99.90;;;;;;5178762;28;20045;-75
2022/12/08 01:58:26;;;;;;;8.38;4.15;;;3.80;99.90;;;;;;5200555;28;20063;-76
2022/12/08 02:01:00;;;;;;;7.72;4.07;;;3.70;99.90;;;;;;5189866;28;20034;-74
2022/12/08 02:03:42;;;;;;;4.30;3.45;;;3.70;99.90;;;;;;5175719;28;20056;-76
2022/12/08 02:06:16;;;;;;;4.45;2.90;;;3.70;99.90;;;;;;5168681;28;20064;-75
2022/12/08 02:08:50;;;;;;;;;;;3.70;99.90;;;;;;5168520;28;20048;-76
2022/12/08 02:11:23;;;;;;;3.50;2.45;;;3.60;99.90;;;;;;5146785;28;19910;-74
2022/12/08 02:14:03;;;;;;;3.78;2.50;;;3.50;99.90;;;;;;5163875;28;20345;-77
2022/12/08 02:16:34;;;;;;;3.15;1.92;;;3.50;99.90;;;;;;5181528;28;20046;-75
2022/12/08 02:19:37;;;;;;;2.40;2.00;;;3.50;99.90;;;;;;5175149;28;20031;-75
2022/12/08 02:22:30;;;;;;;2.50;2.05;;;3.60;99.90;;;;;;5180954;28;20041;-75
2022/12/08 02:25:24;;;;;;;3.65;2.30;;;3.70;99.90;;;;;;5163018;28;20056;-75
2022/12/08 02:28:42;;;;;;;3.38;2.10;;;3.90;99.90;;;;;;5163119;28;20348;-75
2022/12/08 02:31:51;;;;;;;3.13;2.13;;;3.90;99.90;;;;;;5187605;28;20034;-77
2022/12/08 02:34:46;;;;;;;3.10;2.33;;;4.00;99.90;;;;;;5194979;28;20049;-75
2022/12/08 02:37:40;;;;;;;3.55;2.30;;;4.20;99.90;;;;;;5177466;28;20037;-71
2022/12/08 02:40:51;;;;;;;5.13;2.20;;;4.50;99.90;;;;;;5162955;28;20044;-76
2022/12/08 02:43:39;;;;;;;3.28;2.15;;;4.60;99.90;;;;;;5161370;28;20041;-75
2022/12/08 02:46:22;;;;;;;3.67;2.70;;;4.70;99.90;;;;;;5162219;28;20037;-76
2022/12/08 02:48:56;;;;;;;4.05;3.08;;;4.70;99.90;;;;;;5163794;28;20042;-75
2022/12/08 02:51:32;;;;;;;5.47;3.00;;;4.70;99.90;;;;;;5192456;28;20056;-75
2022/12/08 02:54:04;;;;;;;5.97;3.17;;;4.70;99.90;;;;;;5163723;28;20068;-72
2022/12/08 02:57:19;;;;;;;5.05;3.40;;;4.70;99.90;;;;;;5129955;28;20049;-75
2022/12/08 03:00:03;;;;;;;4.20;3.47;;;4.70;99.90;;;;;;5192169;28;20318;-75
2022/12/08 03:02:57;;;;;;;6.97;3.60;;;4.60;99.90;;;;;;5156744;28;20041;-76
2022/12/08 03:06:10;;;;;;;5.65;3.20;;;4.60;99.90;;;;;;5177859;28;20066;-73
2022/12/08 03:10:04;;;;;;;5.43;3.60;;;4.70;99.90;;;;;;5158388;28;20052;-75
2022/12/08 03:12:46;;;;;;;4.55;3.22;;;4.60;99.90;;;;;;5096584;29;20046;-76
2022/12/08 03:15:20;;;;;;;4.63;3.17;;;4.30;99.90;;;;;;5097226;29;20564;-74
2022/12/08 03:17:57;;;;;;;4.70;3.22;;;4.10;99.90;;;;;;5128209;28;20054;-71
2022/12/08 03:20:34;;;;;;;8.27;3.28;;;4.10;99.90;;;;;;5115793;29;20043;-76
2022/12/08 03:23:12;;;;;;;4.57;3.25;;;4.00;99.90;;;;;;5138141;28;20048;-75
2022/12/08 03:26:12;;;;;;;4.65;3.17;;;4.00;99.90;;;;;;5133092;28;20041;-77
2022/12/08 03:28:45;;;;;;;4.32;2.88;;;4.00;99.90;;;;;;5132967;28;20039;-77
2022/12/08 03:31:21;;;;;;;3.77;2.87;;;3.90;99.90;;;;;;5135606;28;20042;-76
2022/12/08 03:34:02;;;;;;;3.83;2.70;;;3.90;99.90;;;;;;5111372;29;20320;-75
2022/12/08 03:36:36;;;;;;;5.38;2.92;;;3.90;99.90;;;;;;5116162;29;20049;-77
2022/12/08 03:39:10;;;;;;;4.53;2.80;;;4.00;99.90;;;;;;5115461;29;20051;-77
2022/12/08 03:41:43;;;;;;;3.53;2.20;;;4.00;99.90;;;;;;5115419;29;20082;-75
2022/12/08 03:44:15;;;;;;;3.75;2.38;;;3.90;99.90;;;;;;5123250;28;20049;-76
2022/12/08 03:46:48;;;;;;;3.60;3.03;;;3.90;99.90;;;;;;5132953;28;20046;-76
2022/12/08 03:49:22;;;;;;;4.85;2.92;;;3.80;99.90;;;;;;5172293;28;20529;-76
2022/12/08 03:51:58;;;;;;;4.90;2.78;;;3.90;99.90;;;;;;5160634;28;20041;-77
2022/12/08 03:54:29;;;;;;;5.00;3.33;;;4.10;99.90;;;;;;5153887;28;20234;-75
2022/12/08 03:57:03;;;;;;;7.53;3.58;;;4.20;99.90;;;;;;5180166;28;20064;-73
2022/12/08 03:59:43;;;;;;;4.82;3.55;;;4.20;99.90;;;;;;5177788;28;20039;-75
2022/12/08 04:02:14;;;;;;;5.97;3.53;;;4.20;99.90;;;;;;5192922;28;20043;-76
2022/12/08 04:04:51;;;;;;;5.30;3.58;;;4.20;99.90;;;;;;5188709;28;20342;-75
2022/12/08 04:07:24;;;;;;;4.05;3.50;;;4.20;99.90;;;;;;5162516;28;20058;-77
2022/12/08 04:09:55;;;;;;;5.60;3.83;;;4.30;99.90;;;;;;5176075;28;20042;-76
2022/12/08 04:12:30;;;;;;;4.88;3.50;;;4.20;99.90;;;;;;5193108;28;20331;-74
2022/12/08 04:15:10;;;;;;;4.45;3.38;;;4.00;99.90;;;;;;5159012;28;20335;-75
2022/12/08 04:17:44;;;;;;;7.38;3.10;;;4.00;99.90;;;;;;5156408;28;20029;-76
2022/12/08 04:20:16;;;;;;;;;;;3.90;99.90;;;;;;5157064;28;20333;-75
2022/12/08 04:22:56;;;;;;;4.82;3.10;;;3.70;99.90;;;;;;5173087;28;19940;-76
2022/12/08 04:25:30;;;;;;;3.90;3.28;;;3.70;99.90;;;;;;5176472;28;20261;-76
2022/12/08 04:28:04;;;;;;;4.97;3.13;;;3.70;99.90;;;;;;5176997;28;20042;-77
2022/12/08 04:30:39;;;;;;;4.50;3.30;;;3.60;99.90;;;;;;5193020;28;20034;-73
2022/12/08 04:33:18;;;;;;;4.97;2.85;;;3.50;99.90;;;;;;5185616;28;20039;-76
2022/12/08 04:35:53;;;;;;;5.25;3.20;;;3.40;99.90;;;;;;5140800;28;20042;-75
2022/12/08 04:38:28;;;;;;;5.43;3.38;;;3.30;99.90;;;;;;5177995;28;20036;-75
2022/12/08 04:41:05;;;;;;;5.15;3.25;;;3.20;99.90;;;;;;5178445;28;20317;-77
2022/12/08 04:43:39;;;;;;;7.00;3.97;;;3.10;99.90;;;;;;5144989;28;20072;-77
2022/12/08 04:46:11;;;;;;;5.53;3.50;;;3.10;99.90;;;;;;5160302;28;20045;-76
2022/12/08 04:48:43;;;;;;;5.70;3.40;;;3.10;99.90;;;;;;5176689;28;20266;-74
2022/12/08 04:51:17;;;;;;;4.38;3.05;;;3.10;99.90;;;;;;5174648;28;20046;-75
2022/12/08 04:53:51;;;;;;;5.75;3.58;;;3.30;99.90;;;;;;5158385;28;20052;-74
2022/12/08 04:56:26;;;;;;;6.15;3.22;;;3.30;99.90;;;;;;5189691;28;20047;-75
2022/12/08 04:59:04;;;;;;;5.80;3.60;;;3.30;99.90;;;;;;5160100;28;20270;-76
2022/12/08 05:01:35;;;;;;;5.70;3.78;;;3.40;99.90;;;;;;5140983;28;20030;-77
2022/12/08 05:04:11;;;;;;;5.40;3.67;;;3.40;99.90;;;;;;5191991;28;20368;-73
2022/12/08 05:06:46;;;;;;;6.82;4.28;;;3.40;99.90;;;;;;5153624;28;20056;-74
2022/12/08 05:09:20;;;;;;;5.70;3.45;;;3.40;99.90;;;;;;5138955;28;20533;-76
2022/12/08 05:11:51;;;;;;;4.22;3.33;;;3.30;99.90;;;;;;5159774;28;20046;-76
2022/12/08 05:14:26;;;;;;;19.02;8.65;;;3.40;99.90;;;;;;5160145;28;20346;-76
2022/12/08 05:17:02;;;;;;;10.32;5.43;;;3.40;99.90;;;;;;5160396;28;20049;-76
2022/12/08 05:19:36;;;;;;;7.18;5.38;;;3.40;99.90;;;;;;5191820;28;20034;-75
2022/12/08 05:22:17;;;;;;;8.45;7.00;;;3.50;99.90;;;;;;5176077;28;20048;-76
2022/12/08 05:24:53;;;;;;;7.85;5.47;;;3.40;99.90;;;;;;5157200;28;20198;-75
2022/12/08 05:27:27;;;;;;;7.00;4.80;;;3.40;99.90;;;;;;5158111;28;20044;-74
2022/12/08 05:30:05;;;;;;;9.55;4.78;;;3.40;99.90;;;;;;5186701;28;20314;-77
2022/12/08 05:32:45;;;;;;;8.75;4.25;;;3.60;99.90;;;;;;5167907;28;20033;-74
2022/12/08 05:35:17;;;;;;;6.65;3.60;;;3.70;99.90;;;;;;5173829;28;20050;-75
2022/12/08 05:37:52;;;;;;;5.15;3.55;;;3.80;99.90;;;;;;5175404;28;20052;-76
2022/12/08 05:40:30;;;;;;;5.45;3.67;;;3.80;99.90;;;;;;5176528;28;20044;-76
2022/12/08 05:43:05;;;;;;;6.22;4.25;;;3.70;99.90;;;;;;5160281;28;20326;-75
2022/12/08 05:45:42;;;;;;;6.85;3.60;;;3.70;99.90;;;;;;5176078;28;20033;-75
2022/12/08 05:48:18;;;;;;;7.03;4.22;;;3.70;99.90;;;;;;5154363;28;20041;-75
2022/12/08 05:51:03;;;;;;;6.07;3.92;;;3.60;99.90;;;;;;5187491;28;20295;-80
2022/12/08 05:53:34;;;;;;;8.50;3.88;;;3.60;99.90;;;;;;5156218;28;20215;-78
2022/12/08 05:56:08;;;;;;;9.20;4.07;;;3.60;99.90;;;;;;5154869;28;20047;-76
2022/12/08 05:58:40;;;;;;;6.40;3.92;;;3.70;99.90;;;;;;5181240;28;20064;-74
2022/12/08 06:01:31;;;;;;;6.22;3.65;;;3.60;99.90;;;;;;5191778;28;20054;-78
2022/12/08 06:04:09;;;;;;;5.57;3.78;;;3.70;99.90;;;;;;5157618;28;20049;-76
2022/12/08 06:06:58;;;;;;;5.40;3.80;;;3.50;99.90;;;;;;5160936;28;20062;-77
2022/12/08 06:09:29;;;;;;;7.72;3.90;;;3.40;99.90;;;;;;5175723;28;20048;-76
2022/12/08 06:12:06;;;;;;;8.48;3.40;;;3.40;99.90;;;;;;5191202;28;20234;-77
2022/12/08 06:14:46;;;;;;;6.30;4.18;;;3.40;99.90;;;;;;5158763;28;20092;-76
2022/12/08 06:17:22;;;;;;;6.13;4.03;;;3.40;99.90;;;;;;5173726;28;20054;-78
2022/12/08 06:19:54;;;;;;;8.82;4.78;;;3.40;99.90;;;;;;5195123;28;20036;-73
2022/12/08 06:22:37;;;;;;;7.68;4.45;;;3.40;99.90;;;;;;5162877;28;20048;-75
2022/12/08 06:25:14;;;;;;;7.20;4.32;;;3.50;99.90;;;;;;5179451;28;20060;-78
2022/12/08 06:27:51;;;;;;;6.15;4.10;;;3.50;99.90;;;;;;5162552;28;20059;-75
2022/12/08 06:30:27;;;;;;;7.25;4.80;;;3.50;99.90;;;;;;5145561;28;20042;-75
2022/12/08 06:33:01;;;;;;;5.82;3.75;;;3.40;99.90;;;;;;5143676;28;20046;-80
2022/12/08 06:35:33;;;;;;;7.60;4.65;;;3.40;99.90;;;;;;5162156;28;20045;-75
2022/12/08 06:38:08;;;;;;;6.40;4.03;;;3.50;99.90;;;;;;5178068;28;20042;-77
2022/12/08 06:40:44;;;;;;;6.03;4.25;;;3.60;99.90;;;;;;5190190;28;20038;-77
2022/12/08 06:43:18;;;;;;;6.88;3.88;;;3.60;99.90;;;;;;5143012;28;20038;-74
2022/12/08 06:45:58;;;;;;;8.38;3.72;;;3.70;99.90;;;;;;5174884;28;20246;-75
2022/12/08 06:48:32;;;;;;;6.28;3.92;;;3.70;99.90;;;;;;5167603;28;20055;-73
2022/12/08 06:51:22;;;;;;;9.00;4.70;;;3.60;99.90;;;;;;5160274;28;20072;-73
2022/12/08 06:54:00;;;;;;;7.72;4.78;;;3.60;99.90;;;;;;5147899;28;20218;-73
2022/12/08 06:56:36;;;;;;;8.43;5.70;;;3.60;99.90;;;;;;5193449;28;20214;-76
2022/12/08 06:59:10;;;;;;;7.78;4.40;;;3.60;99.90;;;;;;5142493;28;20056;-74
2022/12/08 07:01:47;;;;;;;11.05;5.63;;;3.70;99.90;;;;;;5176581;28;20072;-76
2022/12/08 07:04:18;;;;;;;6.45;4.85;;;3.70;99.90;;;;;;5194237;28;20088;-75
2022/12/08 07:06:50;;;;;;;6.82;5.10;;;3.80;99.90;;;;;;5168991;28;20065;-73
2022/12/08 07:09:27;;;;;;;6.55;4.60;;;3.80;99.90;;;;;;5157197;28;20038;-76
2022/12/08 07:12:02;;;;;;;5.88;4.53;;;3.80;99.90;;;;;;5157771;28;20038;-76
2022/12/08 07:14:36;;;;;;;7.72;4.70;;;3.80;99.90;;;;;;5157553;28;20042;-75
2022/12/08 07:17:11;;;;;;;10.82;6.40;;;3.90;99.90;;;;;;5185795;28;20057;-77
2022/12/08 07:19:45;;;;;;;6.80;4.75;;;3.90;99.90;;;;;;5178123;28;20049;-75
2022/12/08 07:22:24;;;;;;;8.35;4.93;;;3.90;99.90;;;;;;5162116;28;20052;-74
2022/12/08 07:24:56;;;;;;;7.63;4.97;;;4.00;99.90;;;;;;5159781;28;20040;-75
2022/12/08 07:27:33;;;;;;;7.13;4.57;;;4.00;99.90;;;;;;5181584;28;20053;-77
2022/12/08 07:30:08;;;;;;;7.32;4.78;;;4.10;99.90;;;;;;5163294;28;20046;-76
2022/12/08 07:32:44;;;;;;;6.80;4.90;;;4.00;99.90;;;;;;5161104;28;20073;-75
2022/12/08 07:35:15;;;;;;;7.00;4.22;;;3.90;99.90;;;;;;5158731;28;20037;-77
2022/12/08 07:37:53;;;;;;;9.25;5.78;;;3.80;99.90;;;;;;5185971;28;20038;-76
2022/12/08 07:40:26;;;;;;;7.47;4.63;;;3.70;99.90;;;;;;5164314;28;20049;-74
2022/12/08 07:43:03;;;;;;;8.45;4.78;;;3.70;99.90;;;;;;5176530;28;20056;-76
2022/12/08 07:45:35;;;;;;;10.18;5.50;;;3.70;99.90;;;;;;5193786;28;20223;-76
2022/12/08 07:48:22;;;;;;;7.78;5.10;;;3.80;99.90;;;;;;5188332;28;20327;-77
2022/12/08 07:51:04;;;;;;;7.78;5.28;;;3.90;99.90;;;;;;5157375;28;20048;-78
2022/12/08 07:53:41;;;;;;;6.25;4.88;;;3.90;99.90;;;;;;5156630;28;20117;-77
2022/12/08 07:56:16;;;;;;;7.68;4.97;;;4.00;99.90;;;;;;5175992;28;20060;-76
2022/12/08 07:58:57;;;;;;;7.82;4.78;;;4.00;99.90;;;;;;5177355;28;20044;-77
2022/12/08 08:01:35;;;;;;;8.30;4.38;;;4.00;99.90;;;;;;5160378;28;20323;-74
2022/12/08 08:04:09;;;;;;;9.20;5.03;;;4.00;99.90;;;;;;5159923;28;20045;-75
2022/12/08 08:06:41;;;;;;;7.57;4.90;;;4.00;99.90;;;;;;5133023;28;20052;-78
2022/12/08 08:09:21;;;;;;;7.63;5.03;;;4.00;99.90;;;;;;5175836;28;20048;-75
2022/12/08 08:11:54;;;;;;;8.07;4.28;;;3.90;99.90;;;;;;5143073;28;20064;-75
2022/12/08 08:14:27;;;;;;;5.55;4.05;;;3.90;99.90;;;;;;5176357;28;20042;-76
2022/12/08 08:17:02;;;;;;;6.85;4.53;;;3.90;99.90;;;;;;5176149;28;20230;-76
2022/12/08 08:19:36;;;;;;;6.00;4.40;;;4.10;99.90;;;;;;5159122;28;20050;-77
2022/12/08 08:22:10;;;;;;;6.25;4.20;;;4.20;99.90;;;;;;5156531;28;20037;-74
2022/12/08 08:24:47;;;;;;;7.10;5.00;;;4.20;99.90;;;;;;5172824;28;20556;-78
2022/12/08 08:27:23;;;;;;;5.97;4.60;;;4.10;99.90;;;;;;5184993;28;20056;-76
2022/12/08 08:29:55;;;;;;;8.25;4.65;;;4.10;99.90;;;;;;5172934;28;20034;-76
2022/12/08 08:32:29;;;;;;;10.40;5.10;;;4.10;99.90;;;;;;5166097;28;20038;-75
2022/12/08 08:35:05;;;;;;;7.38;5.28;;;4.00;99.90;;;;;;5154741;28;20046;-75
2022/12/08 08:37:42;;;;;;;8.63;5.50;;;4.00;99.90;;;;;;5156517;28;20048;-76
2022/12/08 08:40:17;;;;;;;9.77;5.65;;;4.00;99.90;;;;;;5155955;28;20061;-77
2022/12/08 08:42:51;;;;;;;8.98;5.57;;;3.90;99.90;;;;;;5171245;28;20322;-77
2022/12/08 08:45:25;;;;;;;7.68;4.95;;;3.90;99.90;;;;;;5179323;28;20052;-74
2022/12/08 08:48:00;;;;;;;9.15;5.55;;;3.90;99.90;;;;;;5169778;28;20049;-74
2022/12/08 08:50:31;;;;;;;10.13;4.68;;;3.90;99.90;;;;;;5193832;28;20065;-75
2022/12/08 08:53:04;;;;;;;8.00;5.05;;;3.90;99.90;;;;;;5170837;28;20212;-76
2022/12/08 08:55:45;;;;;;;9.23;5.10;;;3.90;99.90;;;;;;5181604;28;20045;-77
2022/12/08 08:58:23;;;;;;;7.82;4.90;;;3.90;99.90;;;;;;5187841;28;20431;-76
2022/12/08 09:00:57;;;;;;;7.60;4.60;;;4.00;99.90;;;;;;5158490;28;20225;-76
2022/12/08 09:03:31;;;;;;;;;;;4.10;99.90;;;;;;5181632;28;20031;-75
2022/12/08 09:06:05;;;;;;;8.10;4.50;;;4.10;99.90;;;;;;5181227;28;19926;-77
2022/12/08 09:08:39;;;;;;;8.65;5.15;;;4.30;99.90;;;;;;5159697;28;20059;-75
2022/12/08 09:11:14;;;;;;;;;;;4.40;99.90;;;;;;5168141;28;20042;-76
2022/12/08 09:13:54;;;;;;;8.38;4.55;;;4.60;99.90;;;;;;5175859;28;20182;-77
2022/12/08 09:16:29;;;;;;;8.35;4.80;;;4.70;99.90;;;;;;5176354;28;20047;-75
2022/12/08 09:19:03;;;;;;;6.70;5.05;;;4.80;99.90;;;;;;5156453;28;20054;-76
2022/12/08 09:21:39;;;;;;;8.50;4.30;;;4.90;99.90;;;;;;5176126;28;20044;-78
2022/12/08 09:24:14;;;;;;;6.88;5.13;;;5.00;99.90;;;;;;5155596;28;20048;-79
2022/12/08 09:26:52;;;;;;;6.93;4.55;;;5.20;99.90;;;;;;5173561;28;20038;-78
2022/12/08 09:29:26;;;;;;;6.93;5.13;;;5.30;99.90;;;;;;5167309;28;20042;-78
2022/12/08 09:31:58;;;;;;;6.88;4.53;;;5.40;99.90;;;;;;5174622;28;20030;-78
2022/12/08 09:34:34;;;;;;;8.55;4.90;;;5.50;99.90;;;;;;5157714;28;20041;-77
2022/12/08 09:37:08;;;;;;;7.72;5.32;;;5.60;99.90;;;;;;5188530;28;20233;-77
2022/12/08 09:39:39;;;;;;;;;;;5.70;99.90;;;;;;5156589;28;20052;-78
2022/12/08 09:42:12;;;;;;;9.30;4.22;;;5.80;99.90;;;;;;5151127;28;19916;-75
2022/12/08 09:44:58;;;;;;;6.53;4.97;;;5.90;99.90;;;;;;5173617;28;20056;-77
2022/12/08 09:48:06;;;;;;;8.73;4.82;;;5.80;99.90;;;;;;5190211;28;20042;-75
2022/12/08 09:50:41;;;;;;;8.82;5.15;;;5.70;99.90;;;;;;5171285;28;20048;-76
2022/12/08 09:53:22;;;;;;;7.85;4.82;;;5.60;99.90;;;;;;5179102;28;20037;-77
2022/12/08 09:56:21;;;;;;;9.45;5.47;;;5.40;99.90;;;;;;5175043;28;20262;-78
2022/12/08 09:59:22;;;;;;;7.82;4.80;;;5.40;99.90;;;;;;5185376;28;20047;-75
2022/12/08 10:02:23;;;;;;;9.93;5.72;;;5.40;99.90;;;;;;5159457;28;20049;-77
2022/12/08 10:05:01;;;;;;;7.88;5.38;;;5.50;99.90;;;;;;5178244;28;20057;-77
2022/12/08 10:07:47;;;;;;;6.88;4.80;;;5.90;99.90;;;;;;5162371;28;20042;-76
2022/12/08 10:10:48;;;;;;;9.25;4.75;;;6.30;99.90;;;;;;5180402;28;20030;-76
2022/12/08 10:13:40;;;;;;;7.20;4.68;;;6.20;99.90;;;;;;5176922;28;20046;-73
2022/12/08 10:16:35;;;;;;;10.57;4.53;;;6.20;99.90;;;;;;5177850;28;20053;-75
2022/12/08 10:19:24;;;;;;;5.82;4.07;;;6.10;99.90;;;;;;5175661;28;20046;-75
2022/12/08 10:21:57;;;;;;;6.88;3.58;;;6.00;99.90;;;;;;5171107;28;20042;-75
2022/12/08 10:24:41;;;;;;;6.15;4.03;;;5.90;99.90;;;;;;5170461;28;20114;-76
2022/12/08 10:27:16;;;;;;;8.27;4.50;;;6.00;99.90;;;;;;5190779;28;20034;-74
2022/12/08 10:29:56;;;;;;;8.57;4.32;;;6.10;99.90;;;;;;5162086;28;20067;-77
2022/12/08 10:32:34;;;;;;;6.30;3.78;;;6.20;99.90;;;;;;5158461;28;20222;-75
2022/12/08 10:35:14;;;;;;;8.82;4.47;;;6.10;99.90;;;;;;5176111;28;20047;-77
2022/12/08 10:38:05;;;;;;;7.13;3.95;;;6.10;99.90;;;;;;5177055;28;20045;-76
2022/12/08 10:40:40;;;;;;;8.10;4.22;;;6.20;99.90;;;;;;5169409;28;20048;-78
2022/12/08 10:43:24;;;;;;;7.32;4.65;;;6.20;99.90;;;;;;5179615;28;20045;-77
2022/12/08 10:46:14;;;;;;;5.97;4.18;;;6.20;99.90;;;;;;5161703;28;20048;-76
2022/12/08 10:49:09;;;;;;;6.55;4.30;;;6.30;99.90;;;;;;5171218;28;20033;-78
2022/12/08 10:51:43;;;;;;;6.60;5.07;;;6.10;99.90;;;;;;5171505;28;20037;-76
2022/12/08 10:54:37;;;;;;;11.05;5.25;;;6.10;99.90;;;;;;5190406;28;20535;-78
2022/12/08 10:57:24;;;;;;;9.35;5.70;;;6.10;99.90;;;;;;5176721;28;20048;-77
2022/12/08 10:59:59;;;;;;;7.60;4.60;;;6.20;99.90;;;;;;5161359;28;20038;-75
2022/12/08 11:02:34;;;;;;;7.88;5.00;;;6.30;99.90;;;;;;5161492;28;20052;-75
2022/12/08 11:05:15;;;;;;;6.40;4.85;;;6.20;99.90;;;;;;5180364;28;20058;-77
2022/12/08 11:07:53;;;;;;;9.65;5.53;;;6.20;99.90;;;;;;5174530;28;20060;-77
2022/12/08 11:10:45;;;;;;;7.10;4.97;;;6.20;99.90;;;;;;5174661;28;20059;-77
2022/12/08 11:13:28;;;;;;;9.52;5.57;;;6.10;99.90;;;;;;5189149;28;20391;-77
2022/12/08 11:16:13;;;;;;;11.13;6.65;;;6.20;99.90;;;;;;5151645;28;20056;-76
2022/12/08 11:18:56;;;;;;;9.05;5.45;;;6.30;99.90;;;;;;5165160;28;20030;-78
2022/12/08 11:21:36;;;;;;;11.27;6.25;;;6.30;99.90;;;;;;5173485;28;20058;-77
2022/12/08 11:24:14;;;;;;;10.60;6.38;;;6.20;99.90;;;;;;5177715;28;20349;-78
2022/12/08 11:27:03;;;;;;;11.43;6.22;;;6.10;99.90;;;;;;5193750;28;20349;-76
2022/12/08 11:29:37;;;;;;;9.20;5.75;;;6.10;99.90;;;;;;5159895;28;20046;-78
2022/12/08 11:32:15;;;;;;;12.32;6.45;;;6.00;99.90;;;;;;5160580;28;20200;-77
2022/12/08 11:35:01;;;;;;;9.05;5.57;;;6.00;99.90;;;;;;5160900;28;20049;-79
2022/12/08 11:37:42;;;;;;;9.88;6.22;;;6.20;99.90;;;;;;5177133;28;20050;-76
2022/12/08 11:40:34;;;;;;;10.93;5.75;;;6.10;99.90;;;;;;5157553;28;20049;-75
2022/12/08 11:44:14;;;;;;;10.48;5.90;;;6.10;99.90;;;;;;5157376;28;20057;-79
2022/12/08 11:47:18;;;;;;;9.35;5.65;;;6.30;99.90;;;;;;5112555;29;20036;-78
2022/12/08 11:50:03;;;;;;;11.13;6.25;;;6.30;99.90;;;;;;5081798;28;20043;-78
2022/12/08 11:52:51;;;;;;;12.05;6.60;;;6.30;99.90;;;;;;5101512;29;20055;-77
2022/12/08 11:55:41;;;;;;;16.35;7.25;;;6.40;99.90;;;;;;5098923;29;20038;-73
2022/12/08 11:58:48;;;;;;;14.27;6.65;;;6.50;99.90;;;;;;5110761;29;20043;-76
2022/12/08 12:01:25;;;;;;;12.98;6.35;;;6.40;99.90;;;;;;5111243;29;20044;-75
2022/12/08 12:04:36;;;;;;;9.75;5.90;;;6.60;99.90;;;;;;5086980;29;20056;-74
2022/12/08 12:07:46;;;;;;;9.73;5.55;;;6.50;99.90;;;;;;5077704;29;20368;-74
2022/12/08 12:10:39;;;;;;;9.80;5.88;;;6.40;99.90;;;;;;5095129;29;20043;-76
2022/12/08 12:13:47;;;;;;;7.22;4.95;;;6.40;99.90;;;;;;5095555;29;20065;-77
2022/12/08 12:16:48;;;;;;;8.93;5.38;;;6.30;99.90;;;;;;5078851;29;20154;-77
2022/12/08 12:19:21;;;;;;;8.23;4.43;;;6.30;99.90;;;;;;5080359;29;20043;-76
2022/12/08 12:22:14;;;;;;;7.22;4.68;;;6.20;99.90;;;;;;5117690;28;20045;-77
2022/12/08 12:24:51;;;;;;;10.75;5.50;;;6.20;99.90;;;;;;5180463;28;20034;-74
2022/12/08 12:27:38;;;;;;;9.40;6.03;;;6.30;99.90;;;;;;5160345;28;20047;-77
2022/12/08 12:30:57;;;;;;;7.90;5.40;;;6.40;99.90;;;;;;5184175;28;20054;-75
2022/12/08 12:33:36;;;;;;;9.25;5.63;;;6.40;99.90;;;;;;5125556;28;20050;-78
2022/12/08 12:36:17;;;;;;;9.02;5.93;;;6.30;99.90;;;;;;5176118;28;20052;-77
2022/12/08 12:39:05;;;;;;;12.48;6.32;;;6.40;99.90;;;;;;5155978;28;20044;-78
2022/12/08 12:41:50;;;;;;;11.55;5.88;;;6.30;99.90;;;;;;5172290;28;20046;-76
2022/12/08 12:44:27;;;;;;;10.02;6.53;;;6.40;99.90;;;;;;5171685;28;20050;-75
2022/12/08 12:47:06;;;;;;;12.05;6.97;;;6.40;99.90;;;;;;5161482;28;20060;-77
2022/12/08 12:49:44;;;;;;;10.20;6.07;;;6.40;99.90;;;;;;5138060;28;20046;-76
2022/12/08 12:52:21;;;;;;;9.23;5.68;;;6.40;99.90;;;;;;5180734;28;20038;-76
2022/12/08 12:54:55;;;;;;;10.30;6.07;;;6.30;99.90;;;;;;5194486;28;20033;-75
2022/12/08 12:57:49;;;;;;;9.00;5.68;;;6.10;99.90;;;;;;5149197;28;20470;-78
2022/12/08 13:00:28;;;;;;;13.48;6.55;;;6.00;99.90;;;;;;5153269;28;20068;-78
2022/12/08 13:03:04;;;;;;;10.27;6.30;;;6.00;99.90;;;;;;5188079;28;20038;-75
2022/12/08 13:05:50;;;;;;;10.68;5.63;;;6.00;99.90;;;;;;5176964;28;20460;-75
2022/12/08 13:08:30;;;;;;;13.35;6.78;;;6.10;99.90;;;;;;5171491;28;20037;-74
2022/12/08 13:11:12;;;;;;;8.07;4.97;;;6.00;99.90;;;;;;5158486;28;20376;-78
2022/12/08 13:14:07;;;;;;;10.50;6.50;;;6.00;99.90;;;;;;5175610;28;20399;-75
2022/12/08 13:16:43;;;;;;;12.20;7.32;;;5.90;99.90;;;;;;5176415;28;20041;-77
2022/12/08 13:19:21;;;;;;;11.45;7.65;;;5.90;99.90;;;;;;5187161;28;20054;-76
2022/12/08 13:21:52;;;;;;;14.95;8.30;;;5.90;99.90;;;;;;5156709;28;20034;-78
2022/12/08 13:24:24;;;;;;;14.07;7.68;;;5.80;99.90;;;;;;5155307;28;20038;-77
2022/12/08 13:27:07;;;;;;;13.93;7.93;;;5.80;99.90;;;;;;5188798;28;20093;-76
2022/12/08 13:29:39;;;;;;;14.65;8.73;;;5.80;99.90;;;;;;5190293;28;20510;-77
2022/12/08 13:32:10;;;;;;;18.10;9.00;;;5.80;99.90;;;;;;5179077;28;20048;-82
2022/12/08 13:35:01;;;;;;;17.20;9.18;;;5.60;99.90;;;;;;5178663;28;20038;-76
2022/12/08 13:37:48;;;;;;;14.32;8.68;;;5.60;99.90;;;;;;5161537;28;20059;-75
2022/12/08 13:40:31;;;;;;;20.17;10.15;;;5.60;99.90;;;;;;5175702;28;20049;-76
2022/12/08 13:43:50;;;;;;;22.80;9.43;;;5.50;99.90;;;;;;5160877;28;20052;-75
2022/12/08 13:46:52;;;;;;;14.07;8.60;;;5.50;99.90;;;;;;5158697;28;20046;-78
2022/12/08 13:49:34;;;;;;;15.52;9.07;;;5.20;99.90;;;;;;5176107;28;20057;-76
2022/12/08 13:52:30;;;;;;;14.52;9.55;;;5.30;99.90;;;;;;5180063;28;20056;-77
2022/12/08 13:55:51;;;;;;;15.15;7.97;;;5.30;99.90;;;;;;5164160;28;20046;-77
2022/12/08 13:58:33;;;;;;;15.65;8.93;;;5.20;99.90;;;;;;5134280;28;20312;-77
2022/12/08 14:01:19;;;;;;;15.30;9.20;;;5.20;99.90;;;;;;5120413;28;20372;-78
2022/12/08 14:03:57;;;;;;;14.57;8.40;;;5.00;99.90;;;;;;5133332;29;20053;-77
2022/12/08 14:06:39;;;;;;;14.40;7.90;;;5.00;99.90;;;;;;5142644;28;20335;-76
2022/12/08 14:09:25;;;;;;;13.27;8.02;;;5.00;99.90;;;;;;5137685;28;20050;-77
2022/12/08 14:12:16;;;;;;;15.50;9.23;;;5.00;99.90;;;;;;5152704;28;20427;-75